sensor_id;sensor_type;location;lat;lon;timestamp;P1;durP1;ratioP1;P2;durP2;ratioP2
5483;SDS011;2764;48.794;8.326;2023-04-03T00:00:01;2.80;;;2.70;;
5483;SDS011;2764;48.794;8.326;2023-04-03T00:01:03;2.40;;;2.30;;
5483;SDS011;2764;48.794;8.326;2023-04-03T00:02:05;2.83;;;2.50;;
5483;SDS011;2764;48.794;8.326;2023-04-03T00:03:07;4.35;;;2.70;;
5483;SDS011;2764;48.794;8.326;2023-04-03T00:04:09;3.05;;;2.80;;
5483;SDS011;2764;48.794;8.326;2023-04-03T00:05:12;3.38;;;3.00;;
5483;SDS011;2764;48.794;8.326;2023-04-03T00:06:13;3.78;;;3.10;;
5483;SDS011;2764;48.794;8.326;2023-04-03T00:07:16;3.67;;;3.20;;
5483;SDS011;2764;48.794;8.326;2023-04-03T00:08:18;3.83;;;3.40;;
5483;SDS011;2764;48.794;8.326;2023-04-03T00:09:22;2.97;;;2.85;;
5483;SDS011;2764;48.794;8.326;2023-04-03T00:10:26;5.18;;;2.90;;
5483;SDS011;2764;48.794;8.326;2023-04-03T00:11:29;5.40;;;3.55;;
5483;SDS011;2764;48.794;8.326;2023-04-03T00:12:30;3.00;;;2.90;;
5483;SDS011;2764;48.794;8.326;2023-04-03T00:13:34;7.55;;;2.92;;
5483;SDS011;2764;48.794;8.326;2023-04-03T00:14:39;3.72;;;3.28;;
5483;SDS011;2764;48.794;8.326;2023-04-03T00:15:41;3.50;;;3.10;;
5483;SDS011;2764;48.794;8.326;2023-04-03T00:16:43;4.13;;;3.38;;
5483;SDS011;2764;48.794;8.326;2023-04-03T00:17:46;3.72;;;3.15;;
5483;SDS011;2764;48.794;8.326;2023-04-03T00:18:49;3.67;;;3.40;;
5483;SDS011;2764;48.794;8.326;2023-04-03T00:19:51;3.42;;;3.05;;
5483;SDS011;2764;48.794;8.326;2023-04-03T00:20:53;6.68;;;3.05;;
5483;SDS011;2764;48.794;8.326;2023-04-03T00:21:55;3.22;;;3.10;;
5483;SDS011;2764;48.794;8.326;2023-04-03T00:22:59;7.60;;;3.25;;
5483;SDS011;2764;48.794;8.326;2023-04-03T00:24:02;3.38;;;3.08;;
5483;SDS011;2764;48.794;8.326;2023-04-03T00:25:05;3.53;;;2.80;;
5483;SDS011;2764;48.794;8.326;2023-04-03T00:26:08;4.38;;;2.95;;
5483;SDS011;2764;48.794;8.326;2023-04-03T00:27:09;4.15;;;3.45;;
5483;SDS011;2764;48.794;8.326;2023-04-03T00:28:12;3.00;;;2.90;;
5483;SDS011;2764;48.794;8.326;2023-04-03T00:29:14;3.25;;;3.05;;
5483;SDS011;2764;48.794;8.326;2023-04-03T00:30:17;3.60;;;3.30;;
5483;SDS011;2764;48.794;8.326;2023-04-03T00:31:23;3.80;;;3.28;;
5483;SDS011;2764;48.794;8.326;2023-04-03T00:32:26;3.45;;;3.10;;
5483;SDS011;2764;48.794;8.326;2023-04-03T00:33:28;2.85;;;2.65;;
5483;SDS011;2764;48.794;8.326;2023-04-03T00:34:30;4.97;;;2.90;;
5483;SDS011;2764;48.794;8.326;2023-04-03T00:35:32;5.38;;;3.17;;
5483;SDS011;2764;48.794;8.326;2023-04-03T00:36:35;3.65;;;3.03;;
5483;SDS011;2764;48.794;8.326;2023-04-03T00:37:39;3.20;;;3.00;;
5483;SDS011;2764;48.794;8.326;2023-04-03T00:38:41;3.15;;;2.85;;
5483;SDS011;2764;48.794;8.326;2023-04-03T00:39:43;3.40;;;3.13;;
5483;SDS011;2764;48.794;8.326;2023-04-03T00:40:46;2.65;;;2.45;;
5483;SDS011;2764;48.794;8.326;2023-04-03T00:41:51;3.05;;;2.85;;
5483;SDS011;2764;48.794;8.326;2023-04-03T00:42:57;3.53;;;3.28;;
5483;SDS011;2764;48.794;8.326;2023-04-03T00:44:16;4.20;;;2.95;;
5483;SDS011;2764;48.794;8.326;2023-04-03T00:45:27;3.00;;;2.80;;
5483;SDS011;2764;48.794;8.326;2023-04-03T00:46:34;2.80;;;2.67;;
5483;SDS011;2764;48.794;8.326;2023-04-03T00:47:36;5.10;;;2.95;;
5483;SDS011;2764;48.794;8.326;2023-04-03T00:48:45;2.97;;;2.80;;
5483;SDS011;2764;48.794;8.326;2023-04-03T00:49:50;3.75;;;3.45;;
5483;SDS011;2764;48.794;8.326;2023-04-03T00:50:53;3.00;;;2.90;;
5483;SDS011;2764;48.794;8.326;2023-04-03T00:51:59;2.30;;;2.20;;
5483;SDS011;2764;48.794;8.326;2023-04-03T00:53:01;3.13;;;3.03;;
5483;SDS011;2764;48.794;8.326;2023-04-03T00:54:05;2.33;;;2.22;;
5483;SDS011;2764;48.794;8.326;2023-04-03T00:55:09;3.37;;;2.90;;
5483;SDS011;2764;48.794;8.326;2023-04-03T00:56:12;2.70;;;2.50;;
5483;SDS011;2764;48.794;8.326;2023-04-03T00:57:18;2.85;;;2.65;;
5483;SDS011;2764;48.794;8.326;2023-04-03T00:58:25;4.05;;;3.17;;
5483;SDS011;2764;48.794;8.326;2023-04-03T00:59:36;3.17;;;2.95;;
5483;SDS011;2764;48.794;8.326;2023-04-03T01:00:43;3.40;;;3.10;;
5483;SDS011;2764;48.794;8.326;2023-04-03T01:01:49;3.25;;;2.90;;
5483;SDS011;2764;48.794;8.326;2023-04-03T01:02:52;3.03;;;2.83;;
5483;SDS011;2764;48.794;8.326;2023-04-03T01:03:54;2.90;;;2.70;;
5483;SDS011;2764;48.794;8.326;2023-04-03T01:04:57;3.05;;;2.67;;
5483;SDS011;2764;48.794;8.326;2023-04-03T01:05:59;3.10;;;2.90;;
5483;SDS011;2764;48.794;8.326;2023-04-03T01:07:06;3.83;;;2.75;;
5483;SDS011;2764;48.794;8.326;2023-04-03T01:08:11;3.22;;;3.03;;
5483;SDS011;2764;48.794;8.326;2023-04-03T01:09:13;3.00;;;2.80;;
5483;SDS011;2764;48.794;8.326;2023-04-03T01:10:19;3.88;;;3.53;;
5483;SDS011;2764;48.794;8.326;2023-04-03T01:11:22;3.60;;;3.40;;
5483;SDS011;2764;48.794;8.326;2023-04-03T01:12:32;4.65;;;3.00;;
5483;SDS011;2764;48.794;8.326;2023-04-03T01:13:37;3.03;;;2.72;;
5483;SDS011;2764;48.794;8.326;2023-04-03T01:14:39;3.00;;;2.80;;
5483;SDS011;2764;48.794;8.326;2023-04-03T01:15:44;2.75;;;2.65;;
5483;SDS011;2764;48.794;8.326;2023-04-03T01:16:53;3.20;;;3.05;;
5483;SDS011;2764;48.794;8.326;2023-04-03T01:17:56;2.40;;;2.30;;
5483;SDS011;2764;48.794;8.326;2023-04-03T01:18:59;3.67;;;2.80;;
5483;SDS011;2764;48.794;8.326;2023-04-03T01:21:39;3.13;;;3.03;;
5483;SDS011;2764;48.794;8.326;2023-04-03T01:24:12;5.40;;;2.60;;
5483;SDS011;2764;48.794;8.326;2023-04-03T01:25:28;4.57;;;2.90;;
5483;SDS011;2764;48.794;8.326;2023-04-03T01:26:30;2.60;;;2.50;;
5483;SDS011;2764;48.794;8.326;2023-04-03T01:27:35;2.60;;;2.45;;
5483;SDS011;2764;48.794;8.326;2023-04-03T01:28:37;2.83;;;2.63;;
5483;SDS011;2764;48.794;8.326;2023-04-03T01:29:38;2.90;;;2.58;;
5483;SDS011;2764;48.794;8.326;2023-04-03T01:30:46;5.13;;;2.47;;
5483;SDS011;2764;48.794;8.326;2023-04-03T01:31:57;3.80;;;2.97;;
5483;SDS011;2764;48.794;8.326;2023-04-03T01:33:02;2.40;;;2.30;;
5483;SDS011;2764;48.794;8.326;2023-04-03T01:34:06;2.97;;;2.60;;
5483;SDS011;2764;48.794;8.326;2023-04-03T01:35:08;4.15;;;2.60;;
5483;SDS011;2764;48.794;8.326;2023-04-03T01:36:14;2.83;;;2.65;;
5483;SDS011;2764;48.794;8.326;2023-04-03T01:37:25;4.65;;;3.35;;
5483;SDS011;2764;48.794;8.326;2023-04-03T01:38:26;3.80;;;3.50;;
5483;SDS011;2764;48.794;8.326;2023-04-03T01:39:28;2.92;;;2.72;;
5483;SDS011;2764;48.794;8.326;2023-04-03T01:40:32;3.20;;;2.80;;
5483;SDS011;2764;48.794;8.326;2023-04-03T01:41:34;3.72;;;3.38;;
5483;SDS011;2764;48.794;8.326;2023-04-03T01:42:36;3.55;;;3.25;;
5483;SDS011;2764;48.794;8.326;2023-04-03T01:43:39;3.20;;;3.00;;
5483;SDS011;2764;48.794;8.326;2023-04-03T01:44:41;6.18;;;2.90;;
5483;SDS011;2764;48.794;8.326;2023-04-03T01:45:43;3.40;;;3.10;;
5483;SDS011;2764;48.794;8.326;2023-04-03T01:46:45;3.00;;;2.80;;
5483;SDS011;2764;48.794;8.326;2023-04-03T01:47:47;3.30;;;3.00;;
5483;SDS011;2764;48.794;8.326;2023-04-03T01:48:49;3.05;;;2.55;;
5483;SDS011;2764;48.794;8.326;2023-04-03T01:49:50;3.45;;;3.15;;
5483;SDS011;2764;48.794;8.326;2023-04-03T01:50:53;7.70;;;3.03;;
5483;SDS011;2764;48.794;8.326;2023-04-03T01:51:55;10.77;;;3.60;;
5483;SDS011;2764;48.794;8.326;2023-04-03T01:52:57;2.97;;;2.78;;
5483;SDS011;2764;48.794;8.326;2023-04-03T01:54:00;3.80;;;3.50;;
5483;SDS011;2764;48.794;8.326;2023-04-03T01:55:02;2.90;;;2.80;;
5483;SDS011;2764;48.794;8.326;2023-04-03T01:56:04;2.30;;;2.20;;
5483;SDS011;2764;48.794;8.326;2023-04-03T01:57:06;3.58;;;3.38;;
5483;SDS011;2764;48.794;8.326;2023-04-03T01:58:09;2.78;;;2.20;;
5483;SDS011;2764;48.794;8.326;2023-04-03T01:59:10;2.90;;;2.70;;
5483;SDS011;2764;48.794;8.326;2023-04-03T02:00:12;3.80;;;3.50;;
5483;SDS011;2764;48.794;8.326;2023-04-03T02:01:15;3.50;;;3.20;;
5483;SDS011;2764;48.794;8.326;2023-04-03T02:02:18;3.65;;;3.00;;
5483;SDS011;2764;48.794;8.326;2023-04-03T02:03:23;2.85;;;2.75;;
5483;SDS011;2764;48.794;8.326;2023-04-03T02:04:24;2.65;;;2.42;;
5483;SDS011;2764;48.794;8.326;2023-04-03T02:05:28;3.17;;;2.65;;
5483;SDS011;2764;48.794;8.326;2023-04-03T02:06:29;3.00;;;2.80;;
5483;SDS011;2764;48.794;8.326;2023-04-03T02:07:31;3.53;;;3.33;;
5483;SDS011;2764;48.794;8.326;2023-04-03T02:08:34;3.15;;;3.05;;
5483;SDS011;2764;48.794;8.326;2023-04-03T02:09:36;3.75;;;2.67;;
5483;SDS011;2764;48.794;8.326;2023-04-03T02:10:41;2.80;;;2.60;;
5483;SDS011;2764;48.794;8.326;2023-04-03T02:11:43;3.60;;;3.35;;
5483;SDS011;2764;48.794;8.326;2023-04-03T02:12:44;6.63;;;3.00;;
5483;SDS011;2764;48.794;8.326;2023-04-03T02:13:47;3.00;;;2.80;;
5483;SDS011;2764;48.794;8.326;2023-04-03T02:14:49;3.85;;;2.58;;
5483;SDS011;2764;48.794;8.326;2023-04-03T02:15:51;5.20;;;3.03;;
5483;SDS011;2764;48.794;8.326;2023-04-03T02:16:53;6.63;;;2.95;;
5483;SDS011;2764;48.794;8.326;2023-04-03T02:17:55;3.50;;;2.92;;
5483;SDS011;2764;48.794;8.326;2023-04-03T02:18:57;4.00;;;3.10;;
5483;SDS011;2764;48.794;8.326;2023-04-03T02:19:59;3.60;;;3.25;;
5483;SDS011;2764;48.794;8.326;2023-04-03T02:21:01;3.72;;;3.25;;
5483;SDS011;2764;48.794;8.326;2023-04-03T02:22:03;2.75;;;2.55;;
5483;SDS011;2764;48.794;8.326;2023-04-03T02:23:06;4.93;;;2.90;;
5483;SDS011;2764;48.794;8.326;2023-04-03T02:24:08;3.92;;;3.53;;
5483;SDS011;2764;48.794;8.326;2023-04-03T02:25:10;3.75;;;3.50;;
5483;SDS011;2764;48.794;8.326;2023-04-03T02:26:14;5.50;;;3.50;;
5483;SDS011;2764;48.794;8.326;2023-04-03T02:27:17;3.75;;;3.10;;
5483;SDS011;2764;48.794;8.326;2023-04-03T02:28:19;6.40;;;3.70;;
5483;SDS011;2764;48.794;8.326;2023-04-03T02:29:21;3.70;;;3.40;;
5483;SDS011;2764;48.794;8.326;2023-04-03T02:30:25;3.50;;;3.30;;
5483;SDS011;2764;48.794;8.326;2023-04-03T02:31:28;10.07;;;3.40;;
5483;SDS011;2764;48.794;8.326;2023-04-03T02:32:30;5.28;;;3.40;;
5483;SDS011;2764;48.794;8.326;2023-04-03T02:33:35;6.43;;;3.78;;
5483;SDS011;2764;48.794;8.326;2023-04-03T02:34:38;4.30;;;3.53;;
5483;SDS011;2764;48.794;8.326;2023-04-03T02:35:40;4.25;;;3.85;;
5483;SDS011;2764;48.794;8.326;2023-04-03T02:36:42;3.70;;;3.40;;
5483;SDS011;2764;48.794;8.326;2023-04-03T02:37:44;4.75;;;3.15;;
5483;SDS011;2764;48.794;8.326;2023-04-03T02:38:45;4.05;;;3.70;;
5483;SDS011;2764;48.794;8.326;2023-04-03T02:39:47;4.50;;;3.45;;
5483;SDS011;2764;48.794;8.326;2023-04-03T02:40:52;6.15;;;3.20;;
5483;SDS011;2764;48.794;8.326;2023-04-03T02:41:53;3.92;;;3.67;;
5483;SDS011;2764;48.794;8.326;2023-04-03T02:42:55;3.03;;;2.85;;
5483;SDS011;2764;48.794;8.326;2023-04-03T02:43:58;6.75;;;3.65;;
5483;SDS011;2764;48.794;8.326;2023-04-03T02:45:00;4.13;;;3.40;;
5483;SDS011;2764;48.794;8.326;2023-04-03T02:46:03;4.72;;;3.58;;
5483;SDS011;2764;48.794;8.326;2023-04-03T02:47:09;3.78;;;3.47;;
5483;SDS011;2764;48.794;8.326;2023-04-03T02:48:14;3.28;;;3.00;;
5483;SDS011;2764;48.794;8.326;2023-04-03T02:49:18;4.00;;;3.53;;
5483;SDS011;2764;48.794;8.326;2023-04-03T02:50:20;4.20;;;3.47;;
5483;SDS011;2764;48.794;8.326;2023-04-03T02:51:23;5.07;;;3.58;;
5483;SDS011;2764;48.794;8.326;2023-04-03T02:52:26;4.47;;;3.20;;
5483;SDS011;2764;48.794;8.326;2023-04-03T02:53:29;3.50;;;3.38;;
5483;SDS011;2764;48.794;8.326;2023-04-03T02:54:31;11.13;;;4.00;;
5483;SDS011;2764;48.794;8.326;2023-04-03T02:55:33;3.80;;;3.38;;
5483;SDS011;2764;48.794;8.326;2023-04-03T02:56:35;4.13;;;3.40;;
5483;SDS011;2764;48.794;8.326;2023-04-03T02:57:36;6.88;;;3.65;;
5483;SDS011;2764;48.794;8.326;2023-04-03T02:58:39;4.13;;;3.72;;
5483;SDS011;2764;48.794;8.326;2023-04-03T02:59:42;3.30;;;3.13;;
5483;SDS011;2764;48.794;8.326;2023-04-03T03:00:44;3.25;;;2.95;;
5483;SDS011;2764;48.794;8.326;2023-04-03T03:01:49;3.20;;;3.00;;
5483;SDS011;2764;48.794;8.326;2023-04-03T03:02:50;4.68;;;3.90;;
5483;SDS011;2764;48.794;8.326;2023-04-03T03:03:52;6.82;;;4.07;;
5483;SDS011;2764;48.794;8.326;2023-04-03T03:04:54;3.78;;;3.58;;
5483;SDS011;2764;48.794;8.326;2023-04-03T03:06:00;3.50;;;3.30;;
5483;SDS011;2764;48.794;8.326;2023-04-03T03:07:06;4.47;;;4.07;;
5483;SDS011;2764;48.794;8.326;2023-04-03T03:08:08;11.20;;;4.30;;
5483;SDS011;2764;48.794;8.326;2023-04-03T03:09:10;4.95;;;4.15;;
5483;SDS011;2764;48.794;8.326;2023-04-03T03:10:12;3.67;;;3.38;;
5483;SDS011;2764;48.794;8.326;2023-04-03T03:11:14;5.00;;;3.70;;
5483;SDS011;2764;48.794;8.326;2023-04-03T03:12:16;5.78;;;3.55;;
5483;SDS011;2764;48.794;8.326;2023-04-03T03:13:25;3.28;;;2.97;;
5483;SDS011;2764;48.794;8.326;2023-04-03T03:14:27;4.82;;;3.53;;
5483;SDS011;2764;48.794;8.326;2023-04-03T03:15:28;4.05;;;3.75;;
5483;SDS011;2764;48.794;8.326;2023-04-03T03:16:31;8.35;;;3.80;;
5483;SDS011;2764;48.794;8.326;2023-04-03T03:17:33;4.47;;;3.60;;
5483;SDS011;2764;48.794;8.326;2023-04-03T03:18:36;3.33;;;2.88;;
5483;SDS011;2764;48.794;8.326;2023-04-03T03:19:38;7.50;;;3.45;;
5483;SDS011;2764;48.794;8.326;2023-04-03T03:20:40;6.35;;;4.10;;
5483;SDS011;2764;48.794;8.326;2023-04-03T03:21:41;5.97;;;3.78;;
5483;SDS011;2764;48.794;8.326;2023-04-03T03:22:43;4.15;;;3.75;;
5483;SDS011;2764;48.794;8.326;2023-04-03T03:23:45;3.25;;;3.00;;
5483;SDS011;2764;48.794;8.326;2023-04-03T03:24:48;4.10;;;3.28;;
5483;SDS011;2764;48.794;8.326;2023-04-03T03:25:54;5.53;;;3.42;;
5483;SDS011;2764;48.794;8.326;2023-04-03T03:27:01;3.67;;;3.35;;
5483;SDS011;2764;48.794;8.326;2023-04-03T03:28:03;5.90;;;3.72;;
5483;SDS011;2764;48.794;8.326;2023-04-03T03:29:05;3.42;;;3.22;;
5483;SDS011;2764;48.794;8.326;2023-04-03T03:30:07;7.45;;;3.95;;
5483;SDS011;2764;48.794;8.326;2023-04-03T03:31:10;3.85;;;3.55;;
5483;SDS011;2764;48.794;8.326;2023-04-03T03:32:12;4.00;;;3.00;;
5483;SDS011;2764;48.794;8.326;2023-04-03T03:33:16;4.00;;;3.70;;
5483;SDS011;2764;48.794;8.326;2023-04-03T03:34:19;4.38;;;3.63;;
5483;SDS011;2764;48.794;8.326;2023-04-03T03:35:20;4.47;;;3.65;;
5483;SDS011;2764;48.794;8.326;2023-04-03T03:36:23;6.03;;;3.72;;
5483;SDS011;2764;48.794;8.326;2023-04-03T03:37:27;6.60;;;4.53;;
5483;SDS011;2764;48.794;8.326;2023-04-03T03:38:29;6.65;;;4.53;;
5483;SDS011;2764;48.794;8.326;2023-04-03T03:39:31;4.72;;;3.83;;
5483;SDS011;2764;48.794;8.326;2023-04-03T03:40:35;4.15;;;3.85;;
5483;SDS011;2764;48.794;8.326;2023-04-03T03:41:37;4.32;;;3.92;;
5483;SDS011;2764;48.794;8.326;2023-04-03T03:42:39;3.80;;;3.50;;
5483;SDS011;2764;48.794;8.326;2023-04-03T03:43:41;4.57;;;4.28;;
5483;SDS011;2764;48.794;8.326;2023-04-03T03:44:43;3.88;;;3.53;;
5483;SDS011;2764;48.794;8.326;2023-04-03T03:45:50;6.10;;;4.10;;
5483;SDS011;2764;48.794;8.326;2023-04-03T03:46:55;3.90;;;3.60;;
5483;SDS011;2764;48.794;8.326;2023-04-03T03:47:57;5.65;;;4.10;;
5483;SDS011;2764;48.794;8.326;2023-04-03T03:49:00;6.45;;;4.90;;
5483;SDS011;2764;48.794;8.326;2023-04-03T03:50:02;4.97;;;4.50;;
5483;SDS011;2764;48.794;8.326;2023-04-03T03:51:05;4.82;;;4.43;;
5483;SDS011;2764;48.794;8.326;2023-04-03T03:52:07;5.63;;;4.88;;
5483;SDS011;2764;48.794;8.326;2023-04-03T03:53:12;10.50;;;4.80;;
5483;SDS011;2764;48.794;8.326;2023-04-03T03:54:16;9.25;;;4.55;;
5483;SDS011;2764;48.794;8.326;2023-04-03T03:55:18;7.50;;;4.55;;
5483;SDS011;2764;48.794;8.326;2023-04-03T03:56:20;8.90;;;5.13;;
5483;SDS011;2764;48.794;8.326;2023-04-03T03:57:22;4.80;;;4.40;;
5483;SDS011;2764;48.794;8.326;2023-04-03T03:58:24;7.20;;;4.80;;
5483;SDS011;2764;48.794;8.326;2023-04-03T03:59:26;7.00;;;4.82;;
5483;SDS011;2764;48.794;8.326;2023-04-03T04:00:31;5.47;;;4.97;;
5483;SDS011;2764;48.794;8.326;2023-04-03T04:01:33;7.30;;;5.40;;
5483;SDS011;2764;48.794;8.326;2023-04-03T04:02:35;6.35;;;4.45;;
5483;SDS011;2764;48.794;8.326;2023-04-03T04:03:38;5.00;;;4.60;;
5483;SDS011;2764;48.794;8.326;2023-04-03T04:04:40;5.03;;;4.63;;
5483;SDS011;2764;48.794;8.326;2023-04-03T04:05:41;4.70;;;4.30;;
5483;SDS011;2764;48.794;8.326;2023-04-03T04:06:44;7.13;;;4.32;;
5483;SDS011;2764;48.794;8.326;2023-04-03T04:07:46;5.20;;;4.70;;
5483;SDS011;2764;48.794;8.326;2023-04-03T04:08:48;4.80;;;4.40;;
5483;SDS011;2764;48.794;8.326;2023-04-03T04:09:50;8.43;;;5.30;;
5483;SDS011;2764;48.794;8.326;2023-04-03T04:10:52;7.35;;;6.55;;
5483;SDS011;2764;48.794;8.326;2023-04-03T04:11:54;14.02;;;6.38;;
5483;SDS011;2764;48.794;8.326;2023-04-03T04:12:56;8.93;;;5.93;;
5483;SDS011;2764;48.794;8.326;2023-04-03T04:13:59;6.70;;;5.43;;
5483;SDS011;2764;48.794;8.326;2023-04-03T04:15:01;5.80;;;5.20;;
5483;SDS011;2764;48.794;8.326;2023-04-03T04:16:04;6.47;;;5.47;;
5483;SDS011;2764;48.794;8.326;2023-04-03T04:17:06;5.85;;;5.22;;
5483;SDS011;2764;48.794;8.326;2023-04-03T04:18:08;7.25;;;5.78;;
5483;SDS011;2764;48.794;8.326;2023-04-03T04:19:12;5.95;;;4.82;;
5483;SDS011;2764;48.794;8.326;2023-04-03T04:20:15;7.13;;;5.40;;
5483;SDS011;2764;48.794;8.326;2023-04-03T04:21:16;10.38;;;5.20;;
5483;SDS011;2764;48.794;8.326;2023-04-03T04:22:19;16.23;;;6.35;;
5483;SDS011;2764;48.794;8.326;2023-04-03T04:23:21;9.02;;;6.45;;
5483;SDS011;2764;48.794;8.326;2023-04-03T04:24:26;11.90;;;6.10;;
5483;SDS011;2764;48.794;8.326;2023-04-03T04:25:28;6.75;;;4.80;;
5483;SDS011;2764;48.794;8.326;2023-04-03T04:26:29;8.50;;;4.35;;
5483;SDS011;2764;48.794;8.326;2023-04-03T04:27:32;6.25;;;4.28;;
5483;SDS011;2764;48.794;8.326;2023-04-03T04:28:35;4.43;;;3.88;;
5483;SDS011;2764;48.794;8.326;2023-04-03T04:29:36;5.50;;;4.78;;
5483;SDS011;2764;48.794;8.326;2023-04-03T04:30:39;4.07;;;3.78;;
5483;SDS011;2764;48.794;8.326;2023-04-03T04:31:42;6.88;;;5.05;;
5483;SDS011;2764;48.794;8.326;2023-04-03T04:32:44;5.22;;;4.55;;
5483;SDS011;2764;48.794;8.326;2023-04-03T04:33:47;4.22;;;3.83;;
5483;SDS011;2764;48.794;8.326;2023-04-03T04:34:49;6.87;;;3.97;;
5483;SDS011;2764;48.794;8.326;2023-04-03T04:35:52;5.75;;;4.00;;
5483;SDS011;2764;48.794;8.326;2023-04-03T04:36:54;4.30;;;4.00;;
5483;SDS011;2764;48.794;8.326;2023-04-03T04:37:56;4.78;;;4.15;;
5483;SDS011;2764;48.794;8.326;2023-04-03T04:38:59;9.57;;;4.75;;
5483;SDS011;2764;48.794;8.326;2023-04-03T04:40:01;6.28;;;4.90;;
5483;SDS011;2764;48.794;8.326;2023-04-03T04:41:03;5.82;;;5.22;;
5483;SDS011;2764;48.794;8.326;2023-04-03T04:42:05;5.25;;;4.85;;
5483;SDS011;2764;48.794;8.326;2023-04-03T04:43:08;6.72;;;4.60;;
5483;SDS011;2764;48.794;8.326;2023-04-03T04:44:12;7.88;;;4.40;;
5483;SDS011;2764;48.794;8.326;2023-04-03T04:45:13;4.28;;;3.97;;
5483;SDS011;2764;48.794;8.326;2023-04-03T04:46:16;6.95;;;4.43;;
5483;SDS011;2764;48.794;8.326;2023-04-03T04:47:19;7.97;;;4.82;;
5483;SDS011;2764;48.794;8.326;2023-04-03T04:48:21;6.38;;;4.30;;
5483;SDS011;2764;48.794;8.326;2023-04-03T04:49:22;6.72;;;5.03;;
5483;SDS011;2764;48.794;8.326;2023-04-03T04:50:27;13.60;;;5.35;;
5483;SDS011;2764;48.794;8.326;2023-04-03T04:51:29;4.90;;;4.40;;
5483;SDS011;2764;48.794;8.326;2023-04-03T04:52:41;7.63;;;4.90;;
5483;SDS011;2764;48.794;8.326;2023-04-03T04:53:44;5.35;;;4.80;;
5483;SDS011;2764;48.794;8.326;2023-04-03T04:54:46;6.18;;;4.78;;
5483;SDS011;2764;48.794;8.326;2023-04-03T04:55:48;6.10;;;4.53;;
5483;SDS011;2764;48.794;8.326;2023-04-03T04:56:50;5.43;;;3.92;;
5483;SDS011;2764;48.794;8.326;2023-04-03T04:57:52;9.50;;;3.80;;
5483;SDS011;2764;48.794;8.326;2023-04-03T04:58:55;5.00;;;4.50;;
5483;SDS011;2764;48.794;8.326;2023-04-03T05:00:00;10.20;;;4.43;;
5483;SDS011;2764;48.794;8.326;2023-04-03T05:01:02;4.40;;;3.83;;
5483;SDS011;2764;48.794;8.326;2023-04-03T05:02:06;4.22;;;3.92;;
5483;SDS011;2764;48.794;8.326;2023-04-03T05:03:08;4.72;;;3.72;;
5483;SDS011;2764;48.794;8.326;2023-04-03T05:04:10;7.90;;;4.30;;
5483;SDS011;2764;48.794;8.326;2023-04-03T05:05:14;4.95;;;3.60;;
5483;SDS011;2764;48.794;8.326;2023-04-03T05:06:17;4.80;;;3.60;;
5483;SDS011;2764;48.794;8.326;2023-04-03T05:07:19;4.78;;;4.28;;
5483;SDS011;2764;48.794;8.326;2023-04-03T05:08:21;6.60;;;4.63;;
5483;SDS011;2764;48.794;8.326;2023-04-03T05:09:23;6.07;;;4.63;;
5483;SDS011;2764;48.794;8.326;2023-04-03T05:10:26;6.93;;;4.60;;
5483;SDS011;2764;48.794;8.326;2023-04-03T05:11:28;8.13;;;5.10;;
5483;SDS011;2764;48.794;8.326;2023-04-03T05:12:30;10.10;;;5.43;;
5483;SDS011;2764;48.794;8.326;2023-04-03T05:13:33;10.98;;;5.57;;
5483;SDS011;2764;48.794;8.326;2023-04-03T05:14:37;6.70;;;4.85;;
5483;SDS011;2764;48.794;8.326;2023-04-03T05:15:39;6.88;;;5.10;;
5483;SDS011;2764;48.794;8.326;2023-04-03T05:16:41;6.13;;;4.40;;
5483;SDS011;2764;48.794;8.326;2023-04-03T05:17:42;3.75;;;3.45;;
5483;SDS011;2764;48.794;8.326;2023-04-03T05:18:44;5.25;;;4.75;;
5483;SDS011;2764;48.794;8.326;2023-04-03T05:19:46;6.30;;;5.00;;
5483;SDS011;2764;48.794;8.326;2023-04-03T05:20:48;6.03;;;4.65;;
5483;SDS011;2764;48.794;8.326;2023-04-03T05:21:51;8.43;;;5.30;;
5483;SDS011;2764;48.794;8.326;2023-04-03T05:22:53;5.03;;;4.70;;
5483;SDS011;2764;48.794;8.326;2023-04-03T05:23:55;6.60;;;5.20;;
5483;SDS011;2764;48.794;8.326;2023-04-03T05:24:57;6.78;;;4.65;;
5483;SDS011;2764;48.794;8.326;2023-04-03T05:25:58;4.70;;;4.30;;
5483;SDS011;2764;48.794;8.326;2023-04-03T05:27:00;5.45;;;4.50;;
5483;SDS011;2764;48.794;8.326;2023-04-03T05:28:03;5.20;;;4.70;;
5483;SDS011;2764;48.794;8.326;2023-04-03T05:29:05;7.07;;;4.90;;
5483;SDS011;2764;48.794;8.326;2023-04-03T05:30:07;6.10;;;4.63;;
5483;SDS011;2764;48.794;8.326;2023-04-03T05:31:09;6.07;;;4.70;;
5483;SDS011;2764;48.794;8.326;2023-04-03T05:32:11;4.35;;;4.05;;
5483;SDS011;2764;48.794;8.326;2023-04-03T05:33:14;4.82;;;4.43;;
5483;SDS011;2764;48.794;8.326;2023-04-03T05:34:15;7.68;;;4.30;;
5483;SDS011;2764;48.794;8.326;2023-04-03T05:35:17;7.45;;;5.20;;
5483;SDS011;2764;48.794;8.326;2023-04-03T05:36:19;5.47;;;4.80;;
5483;SDS011;2764;48.794;8.326;2023-04-03T05:37:21;6.15;;;4.82;;
5483;SDS011;2764;48.794;8.326;2023-04-03T05:38:23;5.53;;;4.65;;
5483;SDS011;2764;48.794;8.326;2023-04-03T05:39:28;7.10;;;4.80;;
5483;SDS011;2764;48.794;8.326;2023-04-03T05:40:30;8.43;;;4.82;;
5483;SDS011;2764;48.794;8.326;2023-04-03T05:41:32;4.10;;;3.80;;
5483;SDS011;2764;48.794;8.326;2023-04-03T05:42:34;3.85;;;3.33;;
5483;SDS011;2764;48.794;8.326;2023-04-03T05:43:36;3.92;;;3.60;;
5483;SDS011;2764;48.794;8.326;2023-04-03T05:44:40;4.13;;;3.80;;
5483;SDS011;2764;48.794;8.326;2023-04-03T05:45:42;5.00;;;4.18;;
5483;SDS011;2764;48.794;8.326;2023-04-03T05:46:47;6.97;;;5.47;;
5483;SDS011;2764;48.794;8.326;2023-04-03T05:47:50;4.97;;;4.57;;
5483;SDS011;2764;48.794;8.326;2023-04-03T05:48:52;7.05;;;4.85;;
5483;SDS011;2764;48.794;8.326;2023-04-03T05:49:56;8.55;;;4.35;;
5483;SDS011;2764;48.794;8.326;2023-04-03T05:50:58;5.28;;;4.75;;
5483;SDS011;2764;48.794;8.326;2023-04-03T05:52:01;6.88;;;4.45;;
5483;SDS011;2764;48.794;8.326;2023-04-03T05:53:03;4.65;;;3.88;;
5483;SDS011;2764;48.794;8.326;2023-04-03T05:54:08;4.00;;;3.80;;
5483;SDS011;2764;48.794;8.326;2023-04-03T05:55:17;4.63;;;3.47;;
5483;SDS011;2764;48.794;8.326;2023-04-03T05:56:19;4.70;;;3.90;;
5483;SDS011;2764;48.794;8.326;2023-04-03T05:57:22;5.93;;;4.50;;
5483;SDS011;2764;48.794;8.326;2023-04-03T05:58:29;4.27;;;3.27;;
5483;SDS011;2764;48.794;8.326;2023-04-03T05:59:33;3.90;;;3.10;;
5483;SDS011;2764;48.794;8.326;2023-04-03T06:00:36;3.40;;;3.20;;
5483;SDS011;2764;48.794;8.326;2023-04-03T06:01:41;4.00;;;3.63;;
5483;SDS011;2764;48.794;8.326;2023-04-03T06:02:46;8.65;;;3.95;;
5483;SDS011;2764;48.794;8.326;2023-04-03T06:03:48;6.80;;;4.15;;
5483;SDS011;2764;48.794;8.326;2023-04-03T06:04:51;5.82;;;4.20;;
5483;SDS011;2764;48.794;8.326;2023-04-03T06:05:53;7.82;;;3.53;;
5483;SDS011;2764;48.794;8.326;2023-04-03T06:06:57;3.60;;;3.30;;
5483;SDS011;2764;48.794;8.326;2023-04-03T06:07:59;3.20;;;3.00;;
5483;SDS011;2764;48.794;8.326;2023-04-03T06:09:01;5.82;;;3.50;;
5483;SDS011;2764;48.794;8.326;2023-04-03T06:10:04;4.13;;;2.85;;
5483;SDS011;2764;48.794;8.326;2023-04-03T06:11:07;3.92;;;3.15;;
5483;SDS011;2764;48.794;8.326;2023-04-03T06:12:11;3.40;;;3.20;;
5483;SDS011;2764;48.794;8.326;2023-04-03T06:13:17;5.72;;;3.10;;
5483;SDS011;2764;48.794;8.326;2023-04-03T06:14:19;3.58;;;3.28;;
5483;SDS011;2764;48.794;8.326;2023-04-03T06:15:21;3.20;;;3.00;;
5483;SDS011;2764;48.794;8.326;2023-04-03T06:16:23;3.47;;;3.28;;
5483;SDS011;2764;48.794;8.326;2023-04-03T06:17:27;9.48;;;3.13;;
5483;SDS011;2764;48.794;8.326;2023-04-03T06:18:31;3.80;;;3.40;;
5483;SDS011;2764;48.794;8.326;2023-04-03T06:19:33;5.43;;;4.88;;
5483;SDS011;2764;48.794;8.326;2023-04-03T06:20:35;12.33;;;8.53;;
5483;SDS011;2764;48.794;8.326;2023-04-03T06:21:39;11.90;;;6.53;;
5483;SDS011;2764;48.794;8.326;2023-04-03T06:22:42;6.78;;;5.50;;
5483;SDS011;2764;48.794;8.326;2023-04-03T06:23:44;7.45;;;5.20;;
5483;SDS011;2764;48.794;8.326;2023-04-03T06:24:46;3.90;;;3.60;;
5483;SDS011;2764;48.794;8.326;2023-04-03T06:25:49;4.60;;;4.20;;
5483;SDS011;2764;48.794;8.326;2023-04-03T06:26:51;3.78;;;3.55;;
5483;SDS011;2764;48.794;8.326;2023-04-03T06:27:54;7.03;;;4.40;;
5483;SDS011;2764;48.794;8.326;2023-04-03T06:28:57;5.35;;;4.85;;
5483;SDS011;2764;48.794;8.326;2023-04-03T06:29:58;4.75;;;4.32;;
5483;SDS011;2764;48.794;8.326;2023-04-03T06:31:01;4.13;;;3.60;;
5483;SDS011;2764;48.794;8.326;2023-04-03T06:32:04;6.32;;;4.13;;
5483;SDS011;2764;48.794;8.326;2023-04-03T06:33:06;6.18;;;3.85;;
5483;SDS011;2764;48.794;8.326;2023-04-03T06:34:08;4.55;;;3.83;;